createdAt,value
2018-01-01T00:00:45.594Z,92.25
2018-01-01T00:03:13.229Z,91.16
2018-01-01T00:05:41.666Z,91.29
2018-01-01T00:08:13.386Z,89.73
2018-01-01T00:10:41.678Z,91.48
2018-01-01T00:13:10.104Z,91.03
2018-01-01T00:15:37.691Z,91.29
2018-01-01T00:18:10.153Z,91.22
2018-01-01T00:20:40.071Z,91.47
2018-01-01T00:23:08.502Z,91.09
2018-01-01T00:25:37.366Z,90.32
2018-01-01T00:28:05.247Z,91.07
2018-01-01T00:30:34.917Z,90.71
2018-01-01T00:33:04.228Z,89.64
2018-01-01T00:35:33.843Z,89.91
2018-01-01T00:38:01.450Z,88.74
2018-01-01T00:40:31.754Z,89.15
2018-01-01T00:43:01.965Z,88.90
2018-01-01T00:45:31.669Z,88.24
2018-01-01T00:48:02.511Z,87.92
2018-01-01T00:50:31.650Z,87.48
2018-01-01T00:53:00.358Z,87.90
2018-01-01T00:55:27.968Z,88.56
2018-01-01T00:57:57.855Z,88.35
2018-01-01T01:00:25.421Z,87.89
2018-01-01T01:02:57.544Z,87.14
2018-01-01T01:05:29.066Z,87.63
2018-01-01T01:07:58.375Z,87.79
2018-01-01T01:10:29.746Z,86.95
2018-01-01T01:12:57.365Z,86.45
2018-01-01T01:15:25.409Z,85.83
2018-01-01T01:17:57.404Z,85.08
2018-01-01T01:20:27.661Z,84.46
2018-01-01T01:23:05.025Z,85.71
2018-01-01T01:25:42.167Z,85.48
2018-01-01T01:28:11.880Z,86.37
2018-01-01T01:30:42.603Z,87.02
2018-01-01T01:33:12.914Z,86.80
2018-01-01T01:35:41.722Z,84.61
2018-01-01T01:38:09.809Z,85.24
2018-01-01T01:40:38.292Z,84.54
2018-01-01T01:43:08.410Z,84.95
2018-01-01T01:45:37.274Z,83.92
2018-01-01T01:48:06.153Z,83.80
2018-01-01T01:50:34.343Z,84.54
2018-01-01T01:53:04.606Z,84.98
2018-01-01T01:55:32.887Z,85.54
2018-01-01T01:58:00.552Z,86.22
2018-01-01T02:00:28.765Z,87.11
2018-01-01T02:02:56.439Z,87.38
2018-01-01T02:05:24.073Z,87.86
2018-01-01T02:07:55.582Z,87.58
2018-01-01T02:10:24.225Z,86.67
2018-01-01T02:12:54.213Z,85.90
2018-01-01T02:15:22.919Z,85.48
2018-01-01T02:17:50.514Z,85.41
2018-01-01T02:20:23.338Z,84.18
2018-01-01T02:22:50.939Z,84.57
2018-01-01T02:25:20.122Z,83.49
2018-01-01T02:27:48.210Z,83.81
2018-01-01T02:30:16.666Z,83.07
2018-01-01T02:32:52.201Z,82.25
2018-01-01T02:35:20.957Z,81.69
2018-01-01T02:37:56.262Z,81.03
2018-01-01T02:40:24.578Z,80.74
2018-01-01T02:42:53.530Z,79.75
2018-01-01T02:45:23.920Z,79.59
2018-01-01T02:47:54.994Z,78.85
2018-01-01T02:50:25.167Z,78.30
2018-01-01T02:52:52.762Z,78.08
2018-01-01T02:55:22.567Z,77.73
2018-01-01T02:57:51.741Z,76.76
2018-01-01T03:00:20.461Z,77.36
2018-01-01T03:02:49.688Z,77.04
2018-01-01T03:05:19.465Z,77.30
2018-01-01T03:07:48.981Z,77.24
2018-01-01T03:10:16.585Z,76.98
2018-01-01T03:12:44.906Z,76.85
2018-01-01T03:15:15.678Z,77.06
2018-01-01T03:17:43.309Z,77.12
2018-01-01T03:20:12.885Z,76.74
2018-01-01T03:22:41.257Z,77.55
2018-01-01T03:25:09.955Z,77.04
2018-01-01T03:27:40.258Z,77.30
2018-01-01T03:30:09.610Z,77.09
2018-01-01T03:32:38.622Z,77.18
2018-01-01T03:35:10.040Z,77.68
2018-01-01T03:40:13.124Z,77.09
2018-01-01T03:42:49.197Z,77.04
2018-01-01T03:45:16.813Z,77.42
2018-01-01T03:47:48.666Z,77.40
2018-01-01T03:50:19.031Z,77.82
2018-01-01T03:52:49.187Z,78.02
2018-01-01T03:55:17.753Z,77.66
2018-01-01T03:57:46.865Z,78.43
2018-01-01T04:00:15.738Z,78.50
2018-01-01T04:02:45.369Z,78.78
2018-01-01T04:05:14.729Z,78.64
2018-01-01T04:07:44.703Z,79.32
2018-01-01T04:10:13.076Z,79.71
2018-01-01T04:12:46.148Z,80.00
2018-01-01T04:15:14.912Z,79.64
2018-01-01T04:17:49.402Z,79.82
2018-01-01T04:20:17.779Z,79.72
2018-01-01T04:22:47.357Z,80.20
2018-01-01T04:25:16.419Z,80.16
2018-01-01T04:27:45.011Z,80.18
2018-01-01T04:30:13.573Z,80.18
2018-01-01T04:32:41.733Z,80.26
2018-01-01T04:35:11.963Z,80.47
2018-01-01T04:37:39.558Z,80.33
2018-01-01T04:40:08.453Z,79.63
2018-01-01T04:42:37.547Z,80.36
2018-01-01T04:45:05.808Z,80.30
2018-01-01T04:47:36.410Z,80.49
2018-01-01T04:50:06.213Z,80.63
2018-01-01T04:52:35.858Z,80.75
2018-01-01T04:55:07.338Z,80.86
2018-01-01T04:57:37.579Z,80.27
2018-01-01T05:00:08.201Z,79.75
2018-01-01T05:02:38.413Z,79.46
2018-01-01T05:05:08.554Z,78.80
2018-01-01T05:07:38.223Z,79.10
2018-01-01T05:10:08.109Z,79.07
2018-01-01T05:12:36.956Z,79.10
2018-01-01T05:15:06.056Z,79.61
2018-01-01T05:17:34.849Z,79.99
2018-01-01T05:20:04.630Z,80.46
2018-01-01T05:22:34.322Z,80.87
2018-01-01T05:25:01.922Z,80.94
2018-01-01T05:27:32.042Z,81.25
2018-01-01T05:30:02.630Z,81.30
2018-01-01T05:32:32.602Z,81.61
2018-01-01T05:35:01.325Z,81.37
2018-01-01T05:37:31.595Z,81.82
2018-01-01T05:40:00.649Z,81.71
2018-01-01T05:42:29.045Z,81.58
2018-01-01T05:44:58.383Z,81.67
2018-01-01T05:47:27.250Z,81.77
2018-01-01T05:49:56.986Z,82.34
2018-01-01T05:52:27.786Z,81.96
2018-01-01T05:54:55.405Z,81.93
2018-01-01T05:57:27.166Z,81.59
2018-01-01T05:59:56.785Z,81.85
2018-01-01T06:02:27.971Z,81.73
2018-01-01T06:04:56.537Z,81.56
2018-01-01T06:07:25.056Z,81.41
2018-01-01T06:09:53.680Z,81.41
2018-01-01T06:12:23.532Z,81.66
2018-01-01T06:14:53.225Z,81.10
2018-01-01T06:17:20.811Z,81.47
2018-01-01T06:19:51.376Z,81.35
2018-01-01T06:22:23.381Z,81.36
2018-01-01T06:24:53.097Z,81.26
2018-01-01T06:27:22.149Z,81.62
2018-01-01T06:29:51.137Z,81.84
2018-01-01T06:32:20.050Z,81.76
2018-01-01T06:34:48.357Z,82.10
2018-01-01T06:37:17.257Z,81.88
2018-01-01T06:39:47.002Z,81.82
2018-01-01T06:42:17.089Z,81.87
2018-01-01T06:44:47.409Z,81.70
2018-01-01T06:47:16.911Z,81.50
2018-01-01T06:49:44.641Z,81.50
2018-01-01T06:52:13.790Z,81.47
2018-01-01T06:54:41.394Z,81.58
2018-01-01T06:57:09.805Z,81.66
2018-01-01T06:59:40.217Z,81.61
2018-01-01T07:02:08.769Z,81.78
2018-01-01T07:04:39.690Z,81.60
2018-01-01T07:07:10.965Z,81.59
2018-01-01T07:09:39.769Z,81.59
2018-01-01T07:12:07.523Z,81.88
2018-01-01T07:14:37.050Z,81.82
2018-01-01T07:17:06.554Z,82.21
2018-01-01T07:19:35.376Z,81.99
2018-01-01T07:22:04.491Z,81.91
2018-01-01T07:24:34.746Z,81.87
2018-01-01T07:27:07.666Z,81.77
2018-01-01T07:29:36.877Z,82.13
2018-01-01T07:32:07.871Z,82.24
2018-01-01T07:34:37.008Z,82.00
2018-01-01T07:37:12.124Z,81.67
2018-01-01T07:39:42.846Z,81.93
2018-01-01T07:42:14.319Z,81.95
2018-01-01T07:44:43.645Z,81.89
2018-01-01T07:47:13.341Z,81.86
2018-01-01T07:49:41.630Z,81.66
2018-01-01T07:52:12.236Z,81.76
2018-01-01T07:54:43.085Z,81.21
2018-01-01T07:57:13.329Z,80.98
2018-01-01T07:59:41.819Z,80.85
2018-01-01T08:02:13.089Z,81.05
2018-01-01T08:04:41.710Z,80.67
2018-01-01T08:07:17.999Z,80.84
2018-01-01T08:09:50.701Z,80.73
2018-01-01T08:12:20.786Z,80.96
2018-01-01T08:14:49.169Z,80.78
2018-01-01T08:17:16.770Z,81.11
2018-01-01T08:19:44.534Z,81.13
2018-01-01T08:22:13.257Z,81.03
2018-01-01T08:24:43.322Z,81.10
2018-01-01T08:27:10.902Z,81.04
2018-01-01T08:29:38.509Z,81.19
2018-01-01T08:32:07.585Z,81.08
2018-01-01T08:34:35.789Z,80.97
2018-01-01T08:37:05.064Z,80.80
2018-01-01T08:39:32.707Z,80.93
2018-01-01T08:42:00.942Z,81.17
2018-01-01T08:44:28.790Z,81.29
2018-01-01T08:46:59.097Z,81.78
2018-01-01T08:49:26.712Z,82.51
2018-01-01T08:51:55.241Z,83.05
2018-01-01T08:54:26.674Z,83.72
2018-01-01T08:56:55.786Z,83.93
2018-01-01T08:59:24.599Z,84.41
2018-01-01T09:01:52.197Z,84.41
2018-01-01T09:04:22.142Z,84.59
2018-01-01T09:06:51.126Z,85.20
2018-01-01T09:09:20.077Z,85.38
2018-01-01T09:11:48.354Z,85.60
2018-01-01T09:14:17.043Z,85.90
2018-01-01T09:16:44.650Z,86.63
2018-01-01T09:19:19.668Z,86.50
2018-01-01T09:21:49.935Z,88.02
2018-01-01T09:24:21.822Z,87.49
2018-01-01T09:26:51.448Z,87.09
2018-01-01T09:29:21.687Z,86.90
2018-01-01T09:31:49.409Z,86.81
2018-01-01T09:34:18.153Z,86.79
2018-01-01T09:36:46.575Z,86.89
2018-01-01T09:39:19.424Z,86.92
2018-01-01T09:41:50.581Z,87.16
2018-01-01T09:44:20.247Z,87.47
2018-01-01T09:46:48.698Z,87.18
2018-01-01T09:49:18.134Z,87.18
2018-01-01T09:51:46.310Z,87.91
2018-01-01T09:54:15.320Z,88.17
2018-01-01T09:56:46.246Z,88.35
2018-01-01T09:59:21.131Z,87.77
2018-01-01T10:01:52.967Z,88.11
2018-01-01T10:04:22.830Z,87.39
2018-01-01T10:06:51.710Z,85.39
2018-01-01T10:09:25.498Z,83.51
2018-01-01T10:11:53.658Z,82.09
2018-01-01T10:14:27.596Z,81.96
2018-01-01T10:16:56.590Z,81.39
2018-01-01T10:19:25.730Z,79.72
2018-01-01T10:21:54.163Z,79.23
2018-01-01T10:24:23.789Z,78.29
2018-01-01T10:26:53.219Z,77.81
2018-01-01T10:29:21.760Z,77.10
2018-01-01T10:31:52.920Z,76.09
2018-01-01T10:34:20.506Z,75.16
2018-01-01T10:36:50.502Z,75.70
2018-01-01T10:39:21.244Z,74.10
2018-01-01T10:41:48.853Z,73.32
2018-01-01T10:44:21.299Z,73.67
2018-01-01T10:46:48.898Z,71.98
2018-01-01T10:49:16.537Z,70.06
2018-01-01T10:51:44.175Z,69.81
2018-01-01T10:54:15.821Z,70.27
2018-01-01T10:56:45.260Z,69.23
2018-01-01T10:59:13.754Z,68.05
2018-01-01T11:01:42.029Z,68.41
2018-01-01T11:04:12.010Z,67.12
2018-01-01T11:06:48.698Z,67.00
2018-01-01T11:09:18.622Z,67.21
2018-01-01T11:11:48.019Z,66.81
2018-01-01T11:14:19.210Z,67.13
2018-01-01T11:16:46.874Z,67.48
2018-01-01T11:19:15.906Z,66.93
2018-01-01T11:21:44.133Z,67.05
2018-01-01T11:24:12.851Z,67.01
2018-01-01T11:26:41.636Z,66.00
2018-01-01T11:29:10.823Z,66.27
2018-01-01T11:31:39.143Z,67.16
2018-01-01T11:34:09.885Z,67.41
2018-01-01T11:36:39.298Z,66.76
2018-01-01T11:39:07.533Z,65.31
2018-01-01T11:41:37.091Z,65.73
2018-01-01T11:44:05.675Z,65.40
2018-01-01T11:46:39.016Z,65.42
2018-01-01T11:49:08.108Z,66.89
2018-01-01T11:51:38.693Z,67.73
2018-01-01T11:54:08.223Z,68.68
2018-01-01T11:56:38.797Z,69.50
2018-01-01T11:59:07.954Z,70.45
2018-01-01T12:01:36.402Z,70.17
2018-01-01T12:04:05.827Z,70.51
2018-01-01T12:06:33.421Z,71.60
2018-01-01T12:09:01.170Z,72.10
2018-01-01T12:11:29.341Z,72.11
2018-01-01T12:14:00.799Z,72.21
2018-01-01T12:16:33.343Z,72.09
2018-01-01T12:19:04.602Z,72.12
2018-01-01T12:21:34.858Z,71.52
2018-01-01T12:24:02.512Z,71.72
2018-01-01T12:26:30.326Z,71.96
2018-01-01T12:29:08.074Z,72.52
2018-01-01T12:31:37.786Z,72.28
2018-01-01T12:34:08.067Z,72.29
2018-01-01T12:36:36.892Z,72.39
2018-01-01T12:39:08.482Z,71.91
2018-01-01T12:41:37.262Z,72.35
2018-01-01T12:44:09.922Z,72.26
2018-01-01T12:46:51.901Z,72.58
2018-01-01T12:49:20.689Z,72.90
2018-01-01T12:51:52.595Z,72.73
2018-01-01T12:54:22.118Z,72.83
2018-01-01T12:56:51.607Z,72.21
2018-01-01T12:59:20.586Z,72.40
2018-01-01T13:01:50.480Z,72.84
2018-01-01T13:04:22.096Z,72.95
2018-01-01T13:06:49.826Z,72.82
2018-01-01T13:09:19.204Z,72.60
2018-01-01T13:11:48.509Z,72.32
2018-01-01T13:14:17.196Z,72.00
2018-01-01T13:16:48.287Z,72.44
2018-01-01T13:19:18.976Z,72.81
2018-01-01T13:21:48.158Z,73.03
2018-01-01T13:24:17.830Z,73.44
2018-01-01T13:26:45.705Z,74.01
2018-01-01T13:29:14.657Z,74.29
2018-01-01T13:31:42.675Z,74.25
2018-01-01T13:34:18.936Z,74.72
2018-01-01T13:36:49.814Z,74.96
2018-01-01T13:39:18.301Z,75.19
2018-01-01T13:41:46.833Z,75.98
2018-01-01T13:44:14.452Z,75.77
2018-01-01T13:46:44.656Z,76.02
2018-01-01T13:49:15.321Z,75.90
2018-01-01T13:51:44.730Z,76.47
2018-01-01T13:54:14.882Z,76.54
2018-01-01T13:56:44.609Z,76.34
2018-01-01T13:59:13.835Z,76.93
2018-01-01T14:01:43.025Z,76.84
2018-01-01T14:04:13.199Z,76.83
2018-01-01T14:06:41.497Z,77.13
2018-01-01T14:09:14.338Z,77.60
2018-01-01T14:11:43.831Z,77.39
2018-01-01T14:14:12.560Z,77.77
2018-01-01T14:16:42.211Z,77.75
2018-01-01T14:19:11.193Z,77.74
2018-01-01T14:21:39.674Z,77.83
2018-01-01T14:24:11.856Z,77.79
2018-01-01T14:26:41.237Z,77.83
2018-01-01T14:29:14.593Z,77.61
2018-01-01T14:31:43.717Z,78.10
2018-01-01T14:34:14.209Z,78.73
2018-01-01T14:36:46.528Z,79.28
2018-01-01T14:39:15.324Z,79.21
2018-01-01T14:41:44.757Z,80.31
2018-01-01T14:44:13.829Z,81.03
2018-01-01T14:46:42.371Z,81.07
2018-01-01T14:49:12.977Z,81.70
2018-01-01T14:51:42.206Z,82.45
2018-01-01T14:54:10.564Z,82.14
2018-01-01T14:56:38.270Z,82.52
2018-01-01T14:59:08.036Z,82.49
2018-01-01T15:01:38.627Z,83.29
2018-01-01T15:04:07.076Z,84.25
2018-01-01T15:06:37.166Z,84.84
2018-01-01T15:09:06.111Z,85.46
2018-01-01T15:11:36.127Z,85.95
2018-01-01T15:14:06.651Z,87.37
2018-01-01T15:16:35.692Z,88.61
2018-01-01T15:19:15.377Z,89.25
2018-01-01T15:21:45.012Z,90.09
2018-01-01T15:24:14.293Z,90.49
2018-01-01T15:26:42.266Z,91.54
2018-01-01T15:29:12.579Z,92.12
2018-01-01T15:31:44.888Z,91.97
2018-01-01T15:34:13.511Z,92.91
2018-01-01T15:36:42.230Z,93.20
2018-01-01T15:39:10.947Z,93.10
2018-01-01T15:41:39.590Z,93.72
2018-01-01T15:44:08.705Z,92.35
2018-01-01T15:46:38.919Z,89.70
2018-01-01T15:49:10.542Z,90.09
2018-01-01T15:51:39.256Z,89.16
2018-01-01T15:54:08.107Z,89.96
2018-01-01T15:56:35.865Z,91.87
2018-01-01T15:59:05.678Z,93.53
2018-01-01T16:01:36.923Z,94.98
2018-01-01T16:04:05.835Z,96.23
2018-01-01T16:06:37.332Z,96.80
2018-01-01T16:09:05.129Z,97.82
2018-01-01T16:11:37.328Z,98.28
2018-01-01T16:14:07.431Z,98.40
2018-01-01T16:16:37.070Z,98.62
2018-01-01T16:19:10.920Z,98.48
2018-01-01T16:21:39.607Z,98.46
2018-01-01T16:24:08.635Z,98.40
2018-01-01T16:26:36.942Z,98.49
2018-01-01T16:29:04.716Z,99.07
2018-01-01T16:31:36.182Z,99.53
2018-01-01T16:34:05.892Z,99.36
2018-01-01T16:36:37.807Z,99.36
2018-01-01T16:39:08.657Z,98.96
2018-01-01T16:41:37.061Z,98.81
2018-01-01T16:44:12.299Z,98.94
2018-01-01T16:46:45.500Z,98.80
2018-01-01T16:49:14.742Z,98.93
2018-01-01T16:51:47.935Z,98.30
2018-01-01T16:54:16.847Z,97.93
2018-01-01T16:56:45.935Z,97.35
2018-01-01T16:59:14.628Z,97.18
2018-01-01T17:01:43.793Z,97.19
2018-01-01T17:04:13.900Z,97.35
2018-01-01T17:06:44.557Z,97.24
2018-01-01T17:09:15.700Z,97.57
2018-01-01T17:11:46.487Z,97.75
2018-01-01T17:14:15.620Z,96.95
2018-01-01T17:16:44.406Z,97.52
2018-01-01T17:19:12.713Z,97.67
2018-01-01T17:21:41.235Z,98.21
2018-01-01T17:24:11.442Z,98.31
2018-01-01T17:26:39.831Z,98.71
2018-01-01T17:29:10.124Z,98.73
2018-01-01T17:31:37.747Z,98.84
2018-01-01T17:34:07.150Z,98.41
2018-01-01T17:36:35.996Z,98.18
2018-01-01T17:39:06.236Z,98.30
2018-01-01T17:44:09.465Z,98.71
2018-01-01T17:46:40.268Z,99.24
2018-01-01T17:49:10.527Z,99.75
2018-01-01T17:51:43.411Z,99.76
2018-01-01T17:54:12.870Z,99.62
2018-01-01T17:56:41.739Z,99.47
2018-01-01T17:59:10.317Z,98.85
2018-01-01T18:01:39.218Z,99.31
2018-01-01T18:04:11.041Z,99.08
2018-01-01T18:06:38.636Z,99.03
2018-01-01T18:09:07.340Z,99.12
2018-01-01T18:11:35.724Z,98.83
2018-01-01T18:14:03.594Z,98.90
2018-01-01T18:16:31.352Z,98.61
2018-01-01T18:18:59.201Z,97.63
2018-01-01T18:21:31.055Z,97.88
2018-01-01T18:24:00.376Z,97.76
2018-01-01T18:26:29.595Z,98.33
2018-01-01T18:28:58.900Z,98.92
2018-01-01T18:31:28.790Z,99.33
2018-01-01T18:33:58.763Z,99.19
2018-01-01T18:36:28.271Z,99.43
2018-01-01T18:38:56.810Z,98.89
2018-01-01T18:41:25.715Z,98.89
2018-01-01T18:43:56.300Z,98.52
2018-01-01T18:46:25.602Z,98.62
2018-01-01T18:48:55.052Z,98.65
2018-01-01T18:51:23.378Z,98.46
2018-01-01T18:53:55.376Z,98.65
2018-01-01T18:56:23.219Z,98.89
2018-01-01T18:58:53.898Z,99.03
2018-01-01T19:01:26.267Z,98.98
2018-01-01T19:03:56.545Z,99.00
2018-01-01T19:06:24.185Z,99.60
2018-01-01T19:08:54.931Z,99.44
2018-01-01T19:11:23.133Z,99.74
2018-01-01T19:13:52.618Z,99.93
2018-01-01T19:16:29.644Z,100.00
2018-01-01T19:19:02.620Z,100.00
2018-01-01T19:21:30.964Z,100.00
2018-01-01T19:23:58.585Z,100.00
2018-01-01T19:26:27.246Z,100.00
2018-01-01T19:28:56.539Z,100.00
2018-01-01T19:31:24.892Z,98.66
2018-01-01T19:33:53.817Z,97.00
2018-01-01T19:36:22.065Z,97.24
2018-01-01T19:38:49.920Z,96.73
2018-01-01T19:41:18.392Z,96.64
2018-01-01T19:43:49.049Z,96.68
2018-01-01T19:46:17.335Z,96.60
2018-01-01T19:48:48.918Z,96.98
2018-01-01T19:51:23.736Z,96.55
2018-01-01T19:53:53.466Z,96.29
2018-01-01T19:56:22.888Z,96.16
2018-01-01T19:58:50.833Z,96.29
2018-01-01T20:01:19.464Z,96.31
2018-01-01T20:03:49.563Z,96.26
2018-01-01T20:06:19.911Z,96.50
2018-01-01T20:08:48.240Z,96.74
2018-01-01T20:11:18.071Z,96.83
2018-01-01T20:13:47.896Z,96.83
2018-01-01T20:16:19.475Z,96.64
2018-01-01T20:18:48.495Z,96.26
2018-01-01T20:21:17.530Z,96.94
2018-01-01T20:23:46.118Z,97.27
2018-01-01T20:26:13.890Z,97.14
2018-01-01T20:28:42.202Z,97.33
2018-01-01T20:31:09.919Z,97.65
2018-01-01T20:33:37.591Z,97.63
2018-01-01T20:36:07.713Z,97.79
2018-01-01T20:38:38.978Z,97.86
2018-01-01T20:41:08.660Z,98.07
2018-01-01T20:43:36.312Z,98.26
2018-01-01T20:46:04.643Z,98.67
2018-01-01T20:48:34.627Z,98.78
2018-01-01T20:51:02.957Z,98.91
2018-01-01T20:53:33.796Z,99.63
2018-01-01T20:56:03.188Z,99.78
2018-01-01T20:58:31.558Z,99.69
2018-01-01T21:01:00.181Z,99.65
2018-01-01T21:03:31.775Z,99.57
2018-01-01T21:06:02.518Z,99.55
2018-01-01T21:08:31.120Z,99.49
2018-01-01T21:11:03.690Z,99.41
2018-01-01T21:13:31.435Z,99.54
2018-01-01T21:16:00.100Z,99.67
2018-01-01T21:18:30.183Z,99.75
2018-01-01T21:20:58.926Z,99.75
2018-01-01T21:23:29.285Z,99.96
2018-01-01T21:26:00.890Z,100.00
2018-01-01T21:28:30.934Z,100.00
2018-01-01T21:31:00.818Z,100.00
2018-01-01T21:33:29.019Z,100.00
2018-01-01T21:35:57.681Z,100.00
2018-01-01T21:38:25.355Z,100.00
2018-01-01T21:40:55.101Z,100.00
2018-01-01T21:43:22.875Z,100.00
2018-01-01T21:45:53.012Z,100.00
2018-01-01T21:48:22.407Z,100.00
2018-01-01T21:50:50.168Z,100.00
2018-01-01T21:53:19.742Z,100.00
2018-01-01T21:55:50.127Z,100.00
2018-01-01T21:58:19.583Z,100.00
2018-01-01T22:00:50.771Z,100.00
2018-01-01T22:03:21.118Z,100.00
2018-01-01T22:05:50.806Z,100.00
2018-01-01T22:08:21.749Z,100.00
2018-01-01T22:10:52.235Z,100.00
2018-01-01T22:13:22.564Z,100.00
2018-01-01T22:15:50.686Z,100.00
2018-01-01T22:18:19.675Z,99.95
2018-01-01T22:20:48.001Z,99.26
2018-01-01T22:23:16.720Z,99.41
2018-01-01T22:25:46.626Z,99.44
2018-01-01T22:28:17.035Z,99.91
2018-01-01T22:30:45.586Z,100.00
2018-01-01T22:33:14.596Z,99.92
2018-01-01T22:35:46.121Z,99.48
2018-01-01T22:38:14.530Z,99.55
2018-01-01T22:40:43.445Z,99.63
2018-01-01T22:43:11.824Z,98.55
2018-01-01T22:45:40.703Z,98.37
2018-01-01T22:48:12.117Z,98.56
2018-01-01T22:50:39.832Z,99.15
2018-01-01T22:53:10.096Z,98.58
2018-01-01T22:55:41.744Z,98.41
2018-01-01T22:58:11.877Z,98.16
2018-01-01T23:00:41.354Z,97.95
2018-01-01T23:03:10.825Z,97.31
2018-01-01T23:05:39.178Z,97.97
2018-01-01T23:08:08.118Z,98.02
2018-01-01T23:10:36.136Z,98.07
2018-01-01T23:13:05.083Z,97.85
2018-01-01T23:15:33.822Z,97.80
2018-01-01T23:18:02.623Z,97.63
2018-01-01T23:20:31.821Z,98.38
2018-01-01T23:23:01.315Z,98.87
2018-01-01T23:25:30.890Z,99.00
2018-01-01T23:28:08.448Z,99.61
2018-01-01T23:30:37.386Z,100.00
2018-01-01T23:33:07.734Z,100.00
2018-01-01T23:35:38.828Z,100.00
2018-01-01T23:38:07.776Z,100.00
2018-01-01T23:40:43.071Z,100.00
2018-01-01T23:43:12.977Z,100.00
2018-01-01T23:45:41.105Z,100.00
2018-01-01T23:48:11.855Z,100.00
2018-01-01T23:50:44.003Z,100.00
2018-01-01T23:53:17.001Z,100.00
2018-01-01T23:55:47.178Z,100.00
2018-01-01T23:58:17.150Z,100.00
